createdAt,value
2023-02-03T00:01:25.608Z,229.60
2023-02-03T00:03:53.088Z,203.73
2023-02-03T00:06:20.650Z,200.65
2023-02-03T00:08:48.657Z,180.00
2023-02-03T00:11:16.138Z,193.88
2023-02-03T00:13:43.640Z,184.68
2023-02-03T00:16:11.083Z,224.63
2023-02-03T00:18:39.245Z,202.43
2023-02-03T00:21:07.278Z,231.45
2023-02-03T00:23:34.810Z,202.43
2023-02-03T00:26:13.491Z,199.23
2023-02-03T00:28:43.403Z,178.02
2023-02-03T00:31:21.017Z,181.70
2023-02-03T00:33:53.158Z,174.88
2023-02-03T00:36:20.603Z,181.63
2023-02-03T00:38:50.032Z,192.85
2023-02-03T00:41:18.855Z,209.05
2023-02-03T00:43:46.931Z,185.27
2023-02-03T00:46:15.060Z,187.57
2023-02-03T00:48:42.633Z,182.02
2023-02-03T00:51:10.155Z,224.55
2023-02-03T00:53:37.639Z,233.68
2023-02-03T00:56:12.440Z,214.60
2023-02-03T00:58:40.773Z,218.98
2023-02-03T01:01:08.847Z,238.13
2023-02-03T01:03:36.668Z,241.50
2023-02-03T01:06:18.066Z,240.43
2023-02-03T01:08:46.252Z,227.27
2023-02-03T01:11:17.379Z,223.95
2023-02-03T01:13:45.293Z,219.95
2023-02-03T01:16:15.095Z,236.50
2023-02-03T01:18:43.644Z,220.13
2023-02-03T01:21:14.792Z,219.85
2023-02-03T01:23:42.858Z,211.23
2023-02-03T01:26:16.111Z,231.02
2023-02-03T01:28:43.766Z,208.73
2023-02-03T01:31:18.234Z,213.43
2023-02-03T01:33:47.201Z,202.80
2023-02-03T01:36:16.281Z,236.00
2023-02-03T01:38:45.254Z,226.77
2023-02-03T01:41:16.184Z,235.52
2023-02-03T01:43:48.227Z,242.15
2023-02-03T01:46:18.956Z,251.93
2023-02-03T01:48:46.591Z,254.80
2023-02-03T01:51:14.315Z,259.08
2023-02-03T01:53:42.035Z,251.10
2023-02-03T01:56:10.835Z,231.93
2023-02-03T01:58:41.261Z,223.32
2023-02-03T02:01:08.964Z,226.30
2023-02-03T02:03:50.619Z,217.10
2023-02-03T02:06:18.086Z,216.18
2023-02-03T02:08:48.463Z,210.05
2023-02-03T02:11:16.240Z,194.38
2023-02-03T02:13:45.136Z,189.00
2023-02-03T02:16:26.029Z,167.27
2023-02-03T02:19:22.005Z,184.48
2023-02-03T02:22:19.220Z,205.30
2023-02-03T02:25:20.626Z,192.88
2023-02-03T02:28:00.253Z,178.30
2023-02-03T02:30:36.641Z,189.50
2023-02-03T02:33:28.655Z,141.05
2023-02-03T02:36:02.236Z,150.07
2023-02-03T02:38:52.093Z,166.00
2023-02-03T02:41:41.391Z,138.68
2023-02-03T02:44:09.095Z,145.73
2023-02-03T02:46:39.852Z,148.88
2023-02-03T02:49:22.414Z,142.07
2023-02-03T02:51:51.777Z,145.55
2023-02-03T02:54:24.076Z,137.50
2023-02-03T02:56:56.110Z,135.25
2023-02-03T02:59:24.741Z,132.77
2023-02-03T03:01:52.262Z,136.43
2023-02-03T03:04:25.673Z,123.78
2023-02-03T03:07:08.501Z,133.02
2023-02-03T03:12:15.016Z,137.95
2023-02-03T03:14:48.459Z,127.25
2023-02-03T03:17:22.801Z,125.15
2023-02-03T03:19:55.572Z,133.27
2023-02-03T03:22:32.966Z,136.90
2023-02-03T03:25:22.787Z,136.88
2023-02-03T03:27:54.923Z,134.70
2023-02-03T03:30:35.000Z,134.02
2023-02-03T03:33:04.635Z,125.57
2023-02-03T03:35:47.991Z,124.10
2023-02-03T03:38:33.754Z,117.22
2023-02-03T03:41:22.246Z,122.03
2023-02-03T03:43:52.416Z,128.80
2023-02-03T03:46:29.084Z,106.75
2023-02-03T03:49:01.291Z,116.95
2023-02-03T03:51:37.288Z,142.25
2023-02-03T03:54:09.382Z,144.35
2023-02-03T03:56:54.689Z,143.90
2023-02-03T03:59:24.312Z,137.73
2023-02-03T04:01:52.655Z,141.00
2023-02-03T04:04:21.350Z,148.38
2023-02-03T04:06:48.864Z,144.38
2023-02-03T04:09:17.592Z,153.02
2023-02-03T04:12:03.156Z,140.82
2023-02-03T04:14:35.333Z,138.68
2023-02-03T04:17:02.764Z,131.60
2023-02-03T04:19:30.302Z,134.73
2023-02-03T04:21:58.166Z,134.13
2023-02-03T04:24:25.661Z,123.88
2023-02-03T04:26:53.088Z,123.78
2023-02-03T04:29:20.665Z,127.00
2023-02-03T04:31:48.132Z,122.88
2023-02-03T04:34:15.793Z,118.28
2023-02-03T04:36:43.305Z,121.18
2023-02-03T04:39:10.895Z,120.75
2023-02-03T04:41:38.543Z,117.38
2023-02-03T04:44:06.354Z,111.43
2023-02-03T04:46:33.776Z,116.82
2023-02-03T04:49:01.211Z,114.00
2023-02-03T04:51:28.797Z,119.90
2023-02-03T04:53:56.177Z,123.22
2023-02-03T04:56:23.729Z,127.40
2023-02-03T04:58:51.333Z,129.90
2023-02-03T05:01:18.873Z,133.45
2023-02-03T05:03:46.404Z,138.43
2023-02-03T05:06:13.857Z,128.30
2023-02-03T05:08:41.322Z,111.47
2023-02-03T05:11:08.714Z,112.07
2023-02-03T05:13:36.110Z,123.20
2023-02-03T05:16:03.806Z,121.50
2023-02-03T05:18:31.436Z,115.40
2023-02-03T05:20:58.896Z,120.20
2023-02-03T05:23:26.472Z,128.20
2023-02-03T05:25:54.101Z,121.03
2023-02-03T05:28:21.511Z,121.20
2023-02-03T05:30:48.989Z,110.10
2023-02-03T05:33:17.041Z,117.25
2023-02-03T05:35:44.668Z,116.95
2023-02-03T05:38:12.132Z,120.32
2023-02-03T05:41:08.927Z,112.05
2023-02-03T05:43:36.766Z,130.10
2023-02-03T05:46:06.209Z,121.22
2023-02-03T05:48:34.880Z,119.32
2023-02-03T05:51:02.616Z,109.22
2023-02-03T05:53:30.301Z,128.40
2023-02-03T05:55:57.864Z,131.50
2023-02-03T05:58:25.410Z,130.20
2023-02-03T06:00:53.113Z,124.53
2023-02-03T06:03:20.574Z,137.32
2023-02-03T06:05:48.226Z,141.45
2023-02-03T06:08:15.761Z,152.35
2023-02-03T06:10:43.442Z,155.70
2023-02-03T06:13:16.669Z,143.50
2023-02-03T06:15:45.206Z,146.38
2023-02-03T06:18:12.694Z,156.63
2023-02-03T06:20:40.128Z,172.55
2023-02-03T06:23:07.610Z,169.73
2023-02-03T06:25:35.270Z,177.18
2023-02-03T06:28:02.988Z,173.18
2023-02-03T06:30:30.992Z,182.32
2023-02-03T06:32:58.707Z,176.85
2023-02-03T06:35:26.322Z,199.77
2023-02-03T06:37:53.920Z,197.32
2023-02-03T06:40:21.423Z,186.90
2023-02-03T06:42:49.120Z,190.57
2023-02-03T06:45:16.873Z,183.30
2023-02-03T06:47:45.721Z,199.48
2023-02-03T06:50:15.135Z,202.82
2023-02-03T06:52:42.824Z,233.90
2023-02-03T06:55:11.096Z,238.07
2023-02-03T06:57:46.996Z,258.88
2023-02-03T07:00:26.116Z,242.73
2023-02-03T07:02:58.426Z,241.43
2023-02-03T07:05:28.165Z,242.68
2023-02-03T07:07:55.942Z,235.93
2023-02-03T07:10:23.389Z,220.23
2023-02-03T07:12:51.905Z,220.95
2023-02-03T07:15:19.687Z,235.43
2023-02-03T07:17:54.669Z,244.35
2023-02-03T07:20:23.881Z,246.48
2023-02-03T07:22:58.248Z,243.88
2023-02-03T07:25:26.380Z,246.20
2023-02-03T07:27:54.173Z,242.13
2023-02-03T07:30:21.911Z,255.27
2023-02-03T07:32:50.926Z,260.73
2023-02-03T07:35:19.490Z,255.13
2023-02-03T07:37:47.077Z,277.77
2023-02-03T07:40:15.369Z,289.08
2023-02-03T07:42:44.405Z,275.80
2023-02-03T07:45:13.196Z,293.83
2023-02-03T07:47:42.355Z,318.42
2023-02-03T07:50:11.305Z,263.17
2023-02-03T07:52:39.470Z,279.00
2023-02-03T07:55:07.647Z,264.83
2023-02-03T07:57:35.349Z,260.05
2023-02-03T08:00:04.130Z,258.48
2023-02-03T08:02:40.126Z,318.70
2023-02-03T08:05:08.120Z,271.98
2023-02-03T08:07:35.680Z,316.23
2023-02-03T08:10:03.678Z,281.13
2023-02-03T08:12:31.317Z,293.35
2023-02-03T08:14:59.025Z,274.70
2023-02-03T08:17:26.791Z,279.85
2023-02-03T08:19:54.298Z,267.20
2023-02-03T08:22:21.926Z,277.20
2023-02-03T08:24:49.542Z,284.98
2023-02-03T08:27:21.448Z,364.67
2023-02-03T08:29:49.460Z,323.77
2023-02-03T08:32:19.605Z,285.15
2023-02-03T08:34:48.021Z,259.20
2023-02-03T08:37:18.272Z,343.33
2023-02-03T08:39:47.188Z,337.58
2023-02-03T08:42:14.827Z,295.23
2023-02-03T08:44:44.191Z,247.02
2023-02-03T08:47:12.448Z,248.23
2023-02-03T08:49:39.984Z,263.27
2023-02-03T08:52:09.154Z,308.05
2023-02-03T08:54:36.783Z,303.35
2023-02-03T08:57:04.467Z,344.58
2023-02-03T08:59:32.274Z,273.17
2023-02-03T09:01:59.983Z,323.85
2023-02-03T09:04:27.506Z,332.80
2023-02-03T09:06:55.393Z,288.30
2023-02-03T09:09:23.752Z,214.32
2023-02-03T09:11:51.238Z,277.92
2023-02-03T09:14:18.829Z,268.90
2023-02-03T09:16:46.269Z,240.20
2023-02-03T09:19:13.734Z,280.40
2023-02-03T09:21:44.225Z,218.82
2023-02-03T09:24:16.234Z,237.02
2023-02-03T09:26:44.116Z,245.68
2023-02-03T09:29:11.822Z,249.68
2023-02-03T09:31:39.665Z,219.95
2023-02-03T09:34:07.646Z,216.30
2023-02-03T09:36:35.299Z,227.65
2023-02-03T09:39:03.030Z,260.73
2023-02-03T09:41:45.992Z,222.63
2023-02-03T09:44:22.666Z,233.55
2023-02-03T09:47:03.998Z,211.95
2023-02-03T09:49:50.514Z,247.95
2023-02-03T09:52:25.359Z,225.48
2023-02-03T09:55:01.305Z,215.18
2023-02-03T09:57:32.143Z,217.32
2023-02-03T10:00:07.025Z,214.68
2023-02-03T10:02:48.794Z,213.93
2023-02-03T10:05:48.685Z,222.45
2023-02-03T10:08:19.125Z,206.77
2023-02-03T10:11:10.766Z,201.07
2023-02-03T10:14:05.040Z,192.82
2023-02-03T10:16:45.075Z,209.30
2023-02-03T10:19:20.023Z,208.45
2023-02-03T10:21:55.474Z,204.05
2023-02-03T10:24:26.882Z,198.68
2023-02-03T10:26:54.863Z,208.88
2023-02-03T10:29:38.196Z,207.32
2023-02-03T10:32:13.326Z,208.30
2023-02-03T10:34:45.104Z,200.45
2023-02-03T10:37:15.521Z,205.32
2023-02-03T10:39:51.177Z,205.88
2023-02-03T10:42:19.525Z,210.95
2023-02-03T10:44:57.389Z,207.35
2023-02-03T10:47:27.141Z,215.27
2023-02-03T10:49:57.302Z,211.35
2023-02-03T10:52:31.917Z,206.27
2023-02-03T10:54:59.892Z,221.85
2023-02-03T10:57:29.838Z,214.88
2023-02-03T11:00:07.731Z,220.70
2023-02-03T11:02:36.193Z,235.23
2023-02-03T11:05:21.129Z,267.60
2023-02-03T11:07:48.668Z,291.85
2023-02-03T11:10:35.923Z,281.92
2023-02-03T11:13:16.050Z,260.75
2023-02-03T11:15:47.724Z,232.98
2023-02-03T11:18:54.109Z,264.77
2023-02-03T11:21:33.735Z,239.57
2023-02-03T11:24:06.005Z,270.02
2023-02-03T11:26:40.049Z,295.25
2023-02-03T11:29:15.535Z,324.63
2023-02-03T11:31:49.142Z,293.48
2023-02-03T11:34:19.745Z,255.02
2023-02-03T11:36:47.265Z,235.32
2023-02-03T11:39:30.041Z,240.80
2023-02-03T11:41:57.570Z,238.13
2023-02-03T11:44:29.620Z,247.77
2023-02-03T11:49:32.844Z,234.82
2023-02-03T11:52:35.652Z,246.63
2023-02-03T11:55:21.281Z,255.27
2023-02-03T11:58:16.605Z,261.23
2023-02-03T12:01:31.563Z,235.25
2023-02-03T12:04:21.333Z,242.07
2023-02-03T12:07:18.385Z,226.65
2023-02-03T12:10:11.711Z,225.05
2023-02-03T12:13:12.289Z,215.93
2023-02-03T12:16:04.029Z,210.82
2023-02-03T12:18:31.471Z,221.05
2023-02-03T12:21:01.962Z,209.60
2023-02-03T12:24:14.882Z,207.32
2023-02-03T12:27:22.357Z,204.38
2023-02-03T12:30:02.336Z,209.25
2023-02-03T12:32:36.682Z,196.27
2023-02-03T12:35:46.482Z,194.18
2023-02-03T12:38:24.466Z,196.25
2023-02-03T12:41:04.376Z,197.85
2023-02-03T12:43:38.767Z,206.40
2023-02-03T12:46:20.939Z,202.88
2023-02-03T12:49:09.932Z,210.23
2023-02-03T12:51:49.785Z,217.07
2023-02-03T12:54:39.675Z,204.57
2023-02-03T12:57:18.572Z,206.60
2023-02-03T13:00:04.638Z,198.90
2023-02-03T13:02:45.075Z,213.95
2023-02-03T13:05:24.674Z,196.07
2023-02-03T13:08:21.583Z,195.55
2023-02-03T13:10:55.478Z,202.75
2023-02-03T13:13:35.197Z,203.52
2023-02-03T13:16:08.009Z,195.48
2023-02-03T13:18:42.738Z,188.98
2023-02-03T13:21:12.987Z,199.73
2023-02-03T13:23:51.555Z,201.25
2023-02-03T13:26:25.418Z,195.48
2023-02-03T13:28:58.932Z,195.75
2023-02-03T13:31:58.501Z,205.20
2023-02-03T13:35:01.021Z,201.82
2023-02-03T13:37:31.506Z,196.07
2023-02-03T13:40:07.919Z,193.00
2023-02-03T13:42:41.451Z,197.52
2023-02-03T13:45:18.045Z,185.25
2023-02-03T13:47:52.928Z,189.27
2023-02-03T13:50:30.416Z,201.55
2023-02-03T13:53:02.146Z,186.57
2023-02-03T13:55:39.366Z,177.55
2023-02-03T13:58:19.897Z,188.88
2023-02-03T14:00:47.302Z,183.90
2023-02-03T14:03:17.588Z,188.68
2023-02-03T14:05:51.083Z,186.55
2023-02-03T14:08:27.642Z,179.00
2023-02-03T14:11:32.761Z,176.95
2023-02-03T14:14:08.873Z,168.88
2023-02-03T14:16:43.456Z,171.13
2023-02-03T14:19:33.741Z,177.80
2023-02-03T14:22:04.979Z,183.50
2023-02-03T14:24:37.672Z,172.02
2023-02-03T14:27:17.335Z,190.55
2023-02-03T14:29:44.968Z,175.27
2023-02-03T14:32:13.675Z,182.48
2023-02-03T14:34:42.557Z,173.18
2023-02-03T14:37:26.507Z,178.07
2023-02-03T14:40:05.207Z,175.70
2023-02-03T14:42:40.179Z,171.48
2023-02-03T14:45:30.219Z,171.65
2023-02-03T14:48:00.592Z,168.45
2023-02-03T14:51:10.847Z,180.25
2023-02-03T14:53:58.424Z,180.00
2023-02-03T14:57:16.376Z,173.73
2023-02-03T14:59:45.910Z,174.90
2023-02-03T15:02:19.245Z,181.35
2023-02-03T15:04:50.377Z,183.32
2023-02-03T15:07:49.458Z,195.55
2023-02-03T15:10:41.915Z,199.38
2023-02-03T15:13:29.570Z,193.55
2023-02-03T15:16:01.309Z,206.45
2023-02-03T15:18:37.924Z,206.60
2023-02-03T15:21:05.594Z,207.93
2023-02-03T15:23:43.256Z,197.45
2023-02-03T15:26:24.310Z,200.85
2023-02-03T15:28:55.867Z,213.07
2023-02-03T15:31:32.369Z,207.65
2023-02-03T15:34:12.262Z,198.32
2023-02-03T15:36:50.630Z,202.10
2023-02-03T15:39:18.146Z,201.23
2023-02-03T15:41:48.427Z,204.23
2023-02-03T15:44:42.785Z,214.10
2023-02-03T15:47:34.688Z,213.35
2023-02-03T15:50:11.173Z,208.77
2023-02-03T15:52:42.924Z,213.13
2023-02-03T15:55:36.339Z,209.15
2023-02-03T15:58:04.697Z,216.43
2023-02-03T16:00:40.818Z,213.57
2023-02-03T16:03:19.826Z,214.48
2023-02-03T16:05:50.936Z,218.32
2023-02-03T16:08:42.752Z,213.10
2023-02-03T16:11:34.730Z,205.35
2023-02-03T16:14:26.916Z,200.02
2023-02-03T16:17:04.883Z,203.65
2023-02-03T16:19:38.169Z,188.95
2023-02-03T16:22:25.954Z,211.23
2023-02-03T16:24:53.424Z,194.25
2023-02-03T16:27:21.775Z,186.00
2023-02-03T16:30:07.666Z,201.77
2023-02-03T16:32:53.885Z,205.82
2023-02-03T16:35:40.332Z,205.57
2023-02-03T16:38:34.391Z,207.57
2023-02-03T16:41:23.026Z,197.07
2023-02-03T16:44:08.825Z,203.68
2023-02-03T16:46:55.978Z,220.38
2023-02-03T16:49:42.214Z,216.50
2023-02-03T16:52:09.686Z,230.35
2023-02-03T16:54:37.209Z,233.73
2023-02-03T16:57:04.685Z,235.48
2023-02-03T16:59:32.172Z,241.32
2023-02-03T17:01:59.625Z,233.43
2023-02-03T17:04:27.256Z,238.18
2023-02-03T17:06:54.879Z,244.27
2023-02-03T17:09:25.027Z,266.63
2023-02-03T17:11:52.575Z,250.65
2023-02-03T17:14:19.997Z,258.20
2023-02-03T17:16:47.533Z,260.70
2023-02-03T17:19:15.036Z,255.52
2023-02-03T17:21:42.742Z,252.00
2023-02-03T17:24:10.267Z,251.25
2023-02-03T17:26:37.776Z,222.20
2023-02-03T17:29:05.566Z,235.32
2023-02-03T17:31:33.349Z,227.50
2023-02-03T17:34:01.011Z,223.70
2023-02-03T17:36:28.656Z,220.38
2023-02-03T17:55:31.541Z,241.65
2023-02-03T17:57:59.433Z,260.15
2023-02-03T18:00:27.583Z,258.92
2023-02-03T18:02:56.433Z,258.23
2023-02-03T18:05:25.051Z,265.00
2023-02-03T18:07:52.448Z,259.55
2023-02-03T18:10:20.145Z,247.32
2023-02-03T18:12:47.860Z,246.88
2023-02-03T18:15:15.590Z,249.48
2023-02-03T18:17:43.361Z,253.15
2023-02-03T18:20:11.840Z,254.00
2023-02-03T18:22:39.233Z,259.75
2023-02-03T18:25:06.890Z,253.75
2023-02-03T18:27:34.396Z,260.38
2023-02-03T18:30:01.902Z,249.18
2023-02-03T18:32:29.333Z,255.43
2023-02-03T18:34:56.981Z,250.23
2023-02-03T18:37:24.427Z,262.13
2023-02-03T18:39:52.037Z,253.80
2023-02-03T18:42:19.501Z,254.68
2023-02-03T18:44:47.036Z,273.80
2023-02-03T18:47:14.719Z,255.32
2023-02-03T18:49:42.426Z,250.40
2023-02-03T18:52:09.890Z,254.88
2023-02-03T18:54:37.442Z,230.02
2023-02-03T18:57:05.921Z,251.38
2023-02-03T18:59:33.780Z,246.77
2023-02-03T19:02:01.474Z,245.50
2023-02-03T19:04:29.090Z,247.02
2023-02-03T19:06:56.770Z,231.13
2023-02-03T19:09:25.233Z,245.50
2023-02-03T19:11:52.832Z,230.10
2023-02-03T19:14:20.563Z,227.77
2023-02-03T19:16:50.460Z,216.65
2023-02-03T19:19:18.042Z,224.88
2023-02-03T19:21:46.217Z,225.32
2023-02-03T19:24:14.207Z,209.50
2023-02-03T19:26:42.116Z,224.50
2023-02-03T19:29:09.708Z,226.73
2023-02-03T19:31:37.428Z,228.77
2023-02-03T19:34:06.308Z,223.93
2023-02-03T19:36:34.045Z,235.93
2023-02-03T19:39:01.483Z,229.85
2023-02-03T19:41:31.016Z,227.40
2023-02-03T19:43:58.687Z,228.02
2023-02-03T19:46:27.398Z,237.60
2023-02-03T19:48:54.903Z,239.20
2023-02-03T19:51:22.476Z,221.43
2023-02-03T19:53:50.353Z,224.98
2023-02-03T19:56:18.574Z,235.05
2023-02-03T19:58:50.863Z,226.88
2023-02-03T20:01:19.289Z,230.20
2023-02-03T20:03:46.948Z,227.93
2023-02-03T20:06:14.722Z,230.40
2023-02-03T20:08:42.307Z,238.00
2023-02-03T20:11:09.850Z,231.35
2023-02-03T20:13:37.456Z,243.20
2023-02-03T20:16:05.185Z,233.98
2023-02-03T20:18:32.642Z,234.00
2023-02-03T20:21:00.198Z,239.60
2023-02-03T20:23:27.732Z,243.75
2023-02-03T20:25:55.312Z,240.38
2023-02-03T20:28:24.738Z,244.63
2023-02-03T20:30:53.994Z,238.48
2023-02-03T20:33:21.473Z,230.55
2023-02-03T20:35:49.840Z,238.27
2023-02-03T20:38:17.305Z,244.95
2023-02-03T20:40:45.933Z,217.98
2023-02-03T20:43:20.139Z,242.15
2023-02-03T20:45:49.690Z,234.55
2023-02-03T20:48:18.118Z,228.85
2023-02-03T20:50:47.730Z,236.95
2023-02-03T20:53:19.236Z,227.90
2023-02-03T20:55:47.652Z,230.83
2023-02-03T20:58:23.373Z,213.07
2023-02-03T21:00:51.711Z,207.60
2023-02-03T21:03:38.873Z,210.23
2023-02-03T21:06:17.467Z,218.25
2023-02-03T21:08:46.073Z,232.30
2023-02-03T21:11:16.710Z,228.27
2023-02-03T21:13:45.698Z,211.75
2023-02-03T21:16:17.874Z,218.90
2023-02-03T21:18:59.836Z,217.52
2023-02-03T21:21:46.880Z,231.07
2023-02-03T21:24:24.123Z,221.15
2023-02-03T21:26:51.991Z,223.93
2023-02-03T21:29:40.689Z,210.10
2023-02-03T21:32:14.263Z,211.60
2023-02-03T21:34:45.724Z,202.52
2023-02-03T21:37:39.047Z,202.65
2023-02-03T21:40:28.128Z,206.02
2023-02-03T21:42:55.899Z,209.15
2023-02-03T21:45:34.326Z,216.90
2023-02-03T21:48:22.694Z,214.68
2023-02-03T21:50:50.373Z,209.00
2023-02-03T21:53:23.712Z,216.27
2023-02-03T21:55:51.264Z,217.80
2023-02-03T21:58:30.868Z,225.25
2023-02-03T22:01:00.510Z,215.90
2023-02-03T22:03:36.422Z,235.43
2023-02-03T22:06:09.967Z,227.60
2023-02-03T22:08:42.834Z,235.98
2023-02-03T22:11:10.848Z,220.32
2023-02-03T22:13:38.462Z,233.02
2023-02-03T22:16:06.580Z,234.07
2023-02-03T22:18:35.337Z,246.07
2023-02-03T22:21:03.396Z,244.10
2023-02-03T22:23:31.028Z,232.43
2023-02-03T22:25:58.694Z,228.35
2023-02-03T22:28:26.614Z,239.30
2023-02-03T22:30:54.209Z,247.43
2023-02-03T22:33:21.763Z,254.10
2023-02-03T22:35:49.297Z,255.60
2023-02-03T22:38:16.806Z,258.73
2023-02-03T22:40:44.623Z,258.20
2023-02-03T22:43:12.319Z,257.08
2023-02-03T22:45:39.752Z,262.20
2023-02-03T22:48:07.387Z,266.65
2023-02-03T22:50:36.348Z,263.23
2023-02-03T22:53:05.036Z,256.85
2023-02-03T22:55:32.538Z,264.75
2023-02-03T22:58:00.027Z,273.40
2023-02-03T23:00:27.786Z,270.92
2023-02-03T23:02:55.663Z,271.90
2023-02-03T23:05:23.384Z,279.85
2023-02-03T23:07:51.142Z,253.23
2023-02-03T23:10:24.593Z,242.73
2023-02-03T23:12:52.804Z,243.05
2023-02-03T23:15:20.321Z,260.77
2023-02-03T23:17:47.809Z,215.85
2023-02-03T23:20:16.982Z,221.48
2023-02-03T23:22:45.132Z,234.45
2023-02-03T23:25:12.866Z,222.35
2023-02-03T23:27:40.394Z,212.18
2023-02-03T23:30:09.381Z,191.35
2023-02-03T23:32:37.148Z,186.23
2023-02-03T23:35:22.870Z,185.55
2023-02-03T23:37:50.391Z,197.85
2023-02-03T23:40:18.193Z,190.60
2023-02-03T23:42:45.624Z,176.27
2023-02-03T23:45:13.223Z,202.40
2023-02-03T23:47:42.529Z,207.18
2023-02-03T23:50:13.661Z,192.43
2023-02-03T23:52:41.175Z,207.43
2023-02-03T23:55:11.977Z,183.23
2023-02-03T23:57:42.576Z,192.25
